DAL3 KATL-KCTJ
Flight info
| Callsign | DAL3 |
|---|---|
| Flight time | N/A |
| Altitude | VFR |
| Route | |
| Aircraft | DC3/M-DOV/C |
Departure
| Time | 2026-05-06 23:16 |
|---|---|
| Airport | Hartsfield Jackson Atlanta International Airport (KATL) |
Arrival
| Time | N/A |
|---|---|
| Airport | West Georgia Regional Airport / O V Gray Field (KCTJ) |
| Time | Latitude | Longitude | Altitude | Speed | Heading |
|---|---|---|---|---|---|
| 2026-05-06 23:06 | 33.65217 | -84.42431 | 1007 ft | 0 kts | 29° |
| 2026-05-06 23:10 | 33.65225 | -84.42424 | 1007 ft | 5 kts | 64° |
| 2026-05-06 23:10 | 33.65206 | -84.42360 | 1007 ft | 13 kts | 114° |
| 2026-05-06 23:10 | 33.65160 | -84.42255 | 1007 ft | 17 kts | 131° |
| 2026-05-06 23:11 | 33.65070 | -84.42194 | 1007 ft | 14 kts | 128° |
| 2026-05-06 23:11 | 33.65063 | -84.42072 | 1007 ft | 15 kts | 91° |
| 2026-05-06 23:11 | 33.65062 | -84.41941 | 1007 ft | 16 kts | 85° |
| 2026-05-06 23:11 | 33.65066 | -84.41804 | 1007 ft | 17 kts | 90° |
| 2026-05-06 23:12 | 33.65065 | -84.41688 | 1006 ft | 0 kts | 90° |
| 2026-05-06 23:12 | 33.65065 | -84.41687 | 1006 ft | 1 kts | 90° |
| 2026-05-06 23:12 | 33.65077 | -84.41562 | 1006 ft | 21 kts | 66° |
| 2026-05-06 23:13 | 33.65121 | -84.41356 | 1007 ft | 26 kts | 91° |
| 2026-05-06 23:13 | 33.64975 | -84.40959 | 1007 ft | 21 kts | 180° |
| 2026-05-06 23:14 | 33.64847 | -84.40917 | 1007 ft | 20 kts | 110° |
| 2026-05-06 23:14 | 33.64847 | -84.40741 | 1007 ft | 22 kts | 88° |
| 2026-05-06 23:14 | 33.64815 | -84.40571 | 1007 ft | 20 kts | 156° |
| 2026-05-06 23:14 | 33.64768 | -84.40562 | 1006 ft | 0 kts | 176° |
| 2026-05-06 23:15 | 33.64763 | -84.40562 | 1006 ft | 4 kts | 179° |
| 2026-05-06 23:15 | 33.64704 | -84.40567 | 1005 ft | 13 kts | 182° |
| 2026-05-06 23:15 | 33.64674 | -84.40672 | 1004 ft | 19 kts | 267° |
| 2026-05-06 23:15 | 33.64663 | -84.41006 | 1008 ft | 60 kts | 273° |
| 2026-05-06 23:16 | 33.64672 | -84.41601 | 1109 ft | 74 kts | 265° |
| 2026-05-06 23:16 | 33.64615 | -84.42225 | 1316 ft | 82 kts | 242° |
| 2026-05-06 23:16 | 33.64719 | -84.42778 | 1511 ft | 88 kts | 304° |
| 2026-05-06 23:16 | 33.64839 | -84.43366 | 1873 ft | 72 kts | 288° |
| 2026-05-06 23:17 | 33.65225 | -84.43805 | 2111 ft | 89 kts | 320° |
| 2026-05-06 23:17 | 33.65887 | -84.44137 | 2268 ft | 111 kts | 327° |
| 2026-05-06 23:17 | 33.66631 | -84.44483 | 2523 ft | 119 kts | 322° |
| 2026-05-06 23:17 | 33.67443 | -84.44749 | 2878 ft | 123 kts | 341° |
| 2026-05-06 23:18 | 33.68298 | -84.44971 | 3122 ft | 129 kts | 334° |
| 2026-05-06 23:18 | 33.69147 | -84.45341 | 3362 ft | 134 kts | 328° |
| 2026-05-06 23:18 | 33.70029 | -84.45794 | 3572 ft | 143 kts | 327° |
| 2026-05-06 23:18 | 33.70864 | -84.46402 | 3794 ft | 134 kts | 290° |
| 2026-05-06 23:19 | 33.70848 | -84.47507 | 3934 ft | 137 kts | 275° |
| 2026-05-06 23:19 | 33.71397 | -84.48483 | 4199 ft | 146 kts | 304° |
| 2026-05-06 23:19 | 33.72117 | -84.49507 | 3455 ft | 163 kts | 300° |
| 2026-05-06 23:19 | 33.72732 | -84.50644 | 2959 ft | 148 kts | 291° |
| 2026-05-06 23:20 | 33.73051 | -84.51626 | 2928 ft | 112 kts | 268° |
| 2026-05-06 23:20 | 33.73098 | -84.52544 | 2668 ft | 116 kts | 279° |
| 2026-05-06 23:20 | 33.73330 | -84.53454 | 2719 ft | 114 kts | 277° |
| 2026-05-06 23:20 | 33.73471 | -84.54303 | 3099 ft | 96 kts | 269° |
| 2026-05-06 23:21 | 33.73530 | -84.55128 | 3368 ft | 102 kts | 265° |
| 2026-05-06 23:21 | 33.73512 | -84.56040 | 3488 ft | 117 kts | 259° |
| 2026-05-06 23:21 | 33.73373 | -84.57064 | 3590 ft | 130 kts | 252° |
| 2026-05-06 23:21 | 33.73250 | -84.58170 | 3731 ft | 144 kts | 272° |
| 2026-05-06 23:22 | 33.73484 | -84.59570 | 2919 ft | 199 kts | 274° |
| 2026-05-06 23:22 | 33.73498 | -84.61203 | 3048 ft | 184 kts | 261° |
| 2026-05-06 23:22 | 33.73498 | -84.62670 | 3122 ft | 186 kts | 272° |
| 2026-05-06 23:22 | 33.73749 | -84.64423 | 2060 ft | 226 kts | 278° |
| 2026-05-06 23:23 | 33.74167 | -84.65963 | 2708 ft | 185 kts | 284° |
| 2026-05-06 23:23 | 33.74399 | -84.67529 | 2363 ft | 194 kts | 264° |
| 2026-05-06 23:23 | 33.74261 | -84.69237 | 1893 ft | 204 kts | 261° |
| 2026-05-06 23:23 | 33.74110 | -84.70713 | 2210 ft | 151 kts | 261° |
| 2026-05-06 23:24 | 33.74072 | -84.71845 | 2284 ft | 125 kts | 265° |
| 2026-05-06 23:24 | 33.74061 | -84.72849 | 2102 ft | 119 kts | 256° |
| 2026-05-06 23:24 | 33.73883 | -84.73815 | 1965 ft | 115 kts | 253° |
| 2026-05-06 23:24 | 33.73647 | -84.74712 | 1882 ft | 111 kts | 242° |
| 2026-05-06 23:25 | 33.73474 | -84.75620 | 1797 ft | 113 kts | 263° |
| 2026-05-06 23:25 | 33.73361 | -84.76260 | 2126 ft | 70 kts | 216° |
| 2026-05-06 23:25 | 33.73087 | -84.76876 | 1886 ft | 101 kts | 245° |
| 2026-05-06 23:25 | 33.72707 | -84.77740 | 1463 ft | 129 kts | 237° |
| 2026-05-06 23:26 | 33.72475 | -84.78721 | 1531 ft | 112 kts | 254° |
| 2026-05-06 23:26 | 33.72270 | -84.79609 | 1451 ft | 115 kts | 249° |
| 2026-05-06 23:26 | 33.71993 | -84.80511 | 1404 ft | 114 kts | 242° |
| 2026-05-06 23:26 | 33.71363 | -84.81007 | 1416 ft | 106 kts | 192° |
| 2026-05-06 23:27 | 33.70629 | -84.81170 | 1421 ft | 110 kts | 191° |
| 2026-05-06 23:27 | 33.70163 | -84.81819 | 1369 ft | 109 kts | 246° |
| 2026-05-06 23:27 | 33.69891 | -84.82650 | 1362 ft | 108 kts | 248° |
| 2026-05-06 23:27 | 33.69559 | -84.83453 | 1365 ft | 107 kts | 226° |
| 2026-05-06 23:28 | 33.69055 | -84.84105 | 1449 ft | 103 kts | 225° |
| 2026-05-06 23:28 | 33.68629 | -84.84769 | 1519 ft | 100 kts | 244° |
| 2026-05-06 23:28 | 33.68649 | -84.85515 | 1620 ft | 97 kts | 279° |
| 2026-05-06 23:28 | 33.68704 | -84.86293 | 1784 ft | 68 kts | 270° |
| 2026-05-06 23:29 | 33.68736 | -84.86988 | 1621 ft | 100 kts | 261° |
| 2026-05-06 23:29 | 33.68560 | -84.87772 | 1611 ft | 100 kts | 241° |
| 2026-05-06 23:29 | 33.68234 | -84.88556 | 1528 ft | 108 kts | 244° |
| 2026-05-06 23:29 | 33.67942 | -84.89332 | 1619 ft | 92 kts | 243° |
| 2026-05-06 23:30 | 33.67721 | -84.90111 | 1566 ft | 96 kts | 240° |
| 2026-05-06 23:30 | 33.67339 | -84.90715 | 1670 ft | 87 kts | 230° |
| 2026-05-06 23:30 | 33.66990 | -84.91309 | 1688 ft | 95 kts | 251° |
| 2026-05-06 23:30 | 33.66878 | -84.92131 | 1669 ft | 105 kts | 258° |
| 2026-05-06 23:31 | 33.66826 | -84.92981 | 1738 ft | 104 kts | 262° |
| 2026-05-06 23:31 | 33.66788 | -84.93849 | 1724 ft | 108 kts | 265° |
| 2026-05-06 23:31 | 33.66378 | -84.94510 | 1784 ft | 99 kts | 227° |
| 2026-05-06 23:31 | 33.65922 | -84.95093 | 1858 ft | 92 kts | 231° |
| 2026-05-06 23:32 | 33.65505 | -84.95664 | 1912 ft | 88 kts | 228° |
| 2026-05-06 23:32 | 33.65117 | -84.96186 | 2074 ft | 71 kts | 232° |
| 2026-05-06 23:32 | 33.64876 | -84.96573 | 2246 ft | 64 kts | 228° |
| 2026-05-06 23:32 | 33.64515 | -84.97033 | 2166 ft | 84 kts | 228° |
| 2026-05-06 23:33 | 33.64083 | -84.97584 | 2097 ft | 95 kts | 232° |
| 2026-05-06 23:33 | 33.63673 | -84.98199 | 2093 ft | 92 kts | 231° |
| 2026-05-06 23:33 | 33.63178 | -84.98701 | 1875 ft | 112 kts | 214° |
| 2026-05-06 23:33 | 33.62915 | -84.98910 | 1858 ft | 112 kts | 216° |
| 2026-05-06 23:34 | 33.62498 | -84.99342 | 1934 ft | 104 kts | 227° |
| 2026-05-06 23:34 | 33.62182 | -84.99763 | 2001 ft | 98 kts | 232° |
| 2026-05-06 23:34 | 33.61749 | -85.00367 | 2084 ft | 92 kts | 226° |
| 2026-05-06 23:34 | 33.61287 | -85.00928 | 1968 ft | 103 kts | 234° |
| 2026-05-06 23:35 | 33.60829 | -85.01737 | 1610 ft | 130 kts | 236° |
| 2026-05-06 23:35 | 33.60341 | -85.02604 | 1591 ft | 123 kts | 237° |
| 2026-05-06 23:35 | 33.59906 | -85.03467 | 1610 ft | 118 kts | 239° |
| 2026-05-06 23:35 | 33.59488 | -85.04286 | 1626 ft | 112 kts | 237° |
| 2026-05-06 23:36 | 33.59078 | -85.05067 | 1647 ft | 111 kts | 236° |
| 2026-05-06 23:36 | 33.58656 | -85.05837 | 1614 ft | 111 kts | 246° |
| 2026-05-06 23:36 | 33.58337 | -85.06693 | 1638 ft | 106 kts | 244° |
| 2026-05-06 23:36 | 33.57767 | -85.07083 | 1702 ft | 99 kts | 194° |
| 2026-05-06 23:37 | 33.57046 | -85.07229 | 1611 ft | 108 kts | 185° |
| 2026-05-06 23:37 | 33.56273 | -85.07318 | 1551 ft | 114 kts | 188° |
| 2026-05-06 23:37 | 33.55454 | -85.07385 | 1405 ft | 124 kts | 178° |
| 2026-05-06 23:37 | 33.54617 | -85.07354 | 1416 ft | 119 kts | 183° |
| 2026-05-06 23:38 | 33.53991 | -85.07644 | 1461 ft | 94 kts | 308° |